Terminal Aerodrome Forecast
Issued by NWS Blacksburg, VA

Current Version | Previous Version | Graphics & Text | Print | Product List | Glossary On
Versions: 1 2 3 4 5 6 7 8 9 10 11 12 13 14 15 16 17 18 19 20 21 22 23 24 25 26 27 28 29 30 31 32 33 34 35 36 37
000
FTUS41 KRNK 190655 AAA
TAFBLF
TAF AMD
KBLF 190655Z 1907/2006 27005KT 4SM BR OVC002
      TEMPO 1908/1911 1/2SM -DZ FG OVC001
     FM191400 29003KT 5SM HZ OVC009
     FM191600 29004KT P6SM BKN015 OVC020
     FM191900 VRB03KT P6SM BKN035
     FM200400 27003KT 5SM BR FEW250=

USA.gov is the U.S. government's official web portal to all federal, state and local government web resources and services.